createdAt,value
2018-05-18T00:01:55.874Z,6.90
2018-05-18T00:06:59.179Z,6.30
2018-05-18T00:12:03.456Z,6.55
2018-05-18T00:17:05.990Z,6.75
2018-05-18T00:22:09.267Z,7.25
2018-05-18T00:27:11.780Z,7.70
2018-05-18T00:32:15.066Z,7.45
2018-05-18T00:37:17.590Z,8.18
2018-05-18T00:42:20.891Z,6.90
2018-05-18T00:47:23.787Z,7.43
2018-05-18T00:52:26.300Z,6.95
2018-05-18T00:57:29.597Z,5.95
2018-05-18T01:02:32.109Z,6.45
2018-05-18T01:07:34.653Z,7.20
2018-05-18T01:12:37.163Z,7.12
2018-05-18T01:17:39.711Z,6.95
2018-05-18T01:22:42.234Z,7.40
2018-05-18T01:27:44.749Z,6.25
2018-05-18T01:32:48.075Z,6.70
2018-05-18T01:37:52.094Z,7.85
2018-05-18T01:42:55.373Z,6.57
2018-05-18T01:47:57.872Z,7.45
2018-05-18T01:53:01.369Z,7.57
2018-05-18T01:58:03.883Z,7.50
2018-05-18T02:03:06.396Z,7.60
2018-05-18T02:08:08.899Z,8.70
2018-05-18T02:13:12.172Z,7.87
2018-05-18T02:18:14.667Z,7.00
2018-05-18T02:23:17.172Z,7.47
2018-05-18T02:28:19.682Z,7.47
2018-05-18T02:33:23.009Z,7.50
2018-05-18T02:38:25.532Z,8.38
2018-05-18T02:43:30.673Z,8.48
2018-05-18T02:48:33.180Z,7.90
2018-05-18T02:53:35.754Z,7.93
2018-05-18T02:58:38.229Z,7.97
2018-05-18T03:03:40.841Z,8.45
2018-05-18T03:08:43.421Z,8.70
2018-05-18T03:13:45.983Z,8.43
2018-05-18T03:18:48.491Z,10.20
2018-05-18T03:23:51.751Z,9.10
2018-05-18T03:28:55.025Z,8.67
2018-05-18T03:33:57.557Z,8.25
2018-05-18T03:39:00.059Z,8.80
2018-05-18T03:44:02.578Z,8.30
2018-05-18T03:49:05.065Z,8.60
2018-05-18T03:54:07.602Z,8.48
2018-05-18T03:59:10.136Z,9.20
2018-05-18T04:09:44.324Z,8.00
2018-05-18T04:14:47.637Z,8.38
2018-05-18T04:19:50.172Z,9.32
2018-05-18T04:24:53.429Z,15.68
2018-05-18T04:29:55.947Z,9.50
2018-05-18T04:34:58.421Z,8.52
2018-05-18T04:40:00.924Z,8.40
2018-05-18T04:45:03.412Z,8.60
2018-05-18T04:50:05.918Z,9.02
2018-05-18T04:55:08.415Z,8.40
2018-05-18T05:00:11.708Z,8.48
2018-05-18T05:05:14.201Z,9.40
2018-05-18T05:10:16.745Z,8.95
2018-05-18T05:15:19.272Z,8.73
2018-05-18T05:20:21.772Z,9.60
2018-05-18T05:25:24.269Z,9.50
2018-05-18T05:30:26.859Z,11.10
2018-05-18T05:35:30.039Z,9.45
2018-05-18T05:40:33.667Z,14.10
2018-05-18T05:45:36.195Z,10.00
2018-05-18T05:50:39.469Z,12.00
2018-05-18T05:55:41.960Z,11.30
2018-05-18T06:00:44.491Z,11.00
2018-05-18T06:05:48.204Z,12.32
2018-05-18T06:10:52.525Z,12.02
2018-05-18T06:15:55.035Z,12.60
2018-05-18T06:20:57.760Z,12.87
2018-05-18T06:26:00.256Z,14.60
2018-05-18T06:31:03.634Z,14.00
2018-05-18T06:36:07.065Z,12.68
2018-05-18T06:41:10.605Z,12.50
2018-05-18T06:46:14.923Z,12.50
2018-05-18T06:51:20.363Z,12.00
2018-05-18T06:56:22.864Z,12.23
2018-05-18T07:01:25.339Z,12.37
2018-05-18T07:06:28.929Z,10.55
2018-05-18T07:11:31.463Z,10.63
2018-05-18T07:16:35.294Z,9.70
2018-05-18T07:21:38.594Z,10.20
2018-05-18T07:26:41.864Z,8.57
2018-05-18T07:31:44.427Z,9.97
2018-05-18T07:36:46.926Z,8.80
2018-05-18T07:41:49.437Z,10.60
2018-05-18T07:46:51.931Z,9.30
2018-05-18T07:51:54.416Z,9.90
2018-05-18T07:56:56.972Z,8.80
2018-05-18T08:02:00.274Z,9.77
2018-05-18T08:07:03.562Z,11.10
2018-05-18T08:12:06.103Z,11.43
2018-05-18T08:17:08.624Z,10.32
2018-05-18T08:22:11.119Z,10.53
2018-05-18T08:27:23.600Z,11.23
2018-05-18T08:32:26.105Z,10.80
2018-05-18T08:37:28.592Z,10.85
2018-05-18T08:42:31.891Z,9.40
2018-05-18T08:47:35.267Z,10.32
2018-05-18T08:52:37.718Z,10.18
2018-05-18T08:57:40.247Z,9.70
2018-05-18T09:02:42.755Z,10.70
2018-05-18T09:07:47.049Z,10.43
2018-05-18T09:12:50.105Z,9.35
2018-05-18T09:17:58.282Z,10.00
2018-05-18T09:23:02.195Z,10.63
2018-05-18T09:28:04.717Z,10.32
2018-05-18T09:33:07.777Z,9.70
2018-05-18T09:38:11.994Z,9.50
2018-05-18T09:43:15.352Z,8.63
2018-05-18T09:48:17.890Z,9.95
2018-05-18T09:53:20.392Z,9.20
2018-05-18T09:58:23.678Z,9.45
2018-05-18T10:03:26.172Z,9.88
2018-05-18T10:08:28.663Z,9.30
2018-05-18T10:13:31.161Z,8.52
2018-05-18T10:18:33.733Z,9.10
2018-05-18T10:23:36.173Z,8.57
2018-05-18T10:28:39.436Z,9.27
2018-05-18T10:33:41.974Z,10.35
2018-05-18T10:38:46.056Z,10.50
2018-05-18T10:43:48.594Z,10.40
2018-05-18T10:48:51.926Z,9.88
2018-05-18T10:53:55.176Z,10.00
2018-05-18T10:58:57.698Z,8.80
2018-05-18T11:04:00.193Z,9.00
2018-05-18T11:09:02.817Z,9.00
2018-05-18T11:14:05.390Z,9.20
2018-05-18T11:19:07.855Z,9.00
2018-05-18T11:24:10.368Z,8.43
2018-05-18T11:29:13.678Z,9.40
2018-05-18T11:34:16.172Z,10.10
2018-05-18T11:39:18.757Z,9.40
2018-05-18T11:44:21.327Z,8.80
2018-05-18T11:49:24.311Z,9.70
2018-05-18T11:54:26.863Z,9.27
2018-05-18T11:59:30.200Z,9.20
2018-05-18T12:04:32.777Z,9.05
2018-05-18T12:09:35.836Z,9.95
2018-05-18T12:14:38.348Z,9.35
2018-05-18T12:19:40.851Z,9.70
2018-05-18T12:24:43.372Z,9.82
2018-05-18T12:29:46.293Z,10.00
2018-05-18T12:34:48.848Z,9.60
2018-05-18T12:39:52.126Z,9.93
2018-05-18T12:44:55.717Z,9.50
2018-05-18T12:49:58.204Z,9.32
2018-05-18T12:55:00.692Z,11.03
2018-05-18T13:00:03.191Z,9.45
2018-05-18T13:05:05.685Z,8.88
2018-05-18T13:10:08.969Z,8.70
2018-05-18T13:15:12.515Z,8.50
2018-05-18T13:20:15.064Z,9.00
2018-05-18T13:25:17.558Z,8.82
2018-05-18T13:30:20.571Z,10.23
2018-05-18T13:35:23.119Z,9.70
2018-05-18T13:40:25.637Z,10.70
2018-05-18T13:45:28.134Z,10.40
2018-05-18T13:50:30.637Z,9.70
2018-05-18T13:55:33.984Z,10.88
2018-05-18T14:00:36.487Z,9.18
2018-05-18T14:05:41.611Z,8.80
2018-05-18T14:10:44.220Z,10.02
2018-05-18T14:15:46.727Z,9.75
2018-05-18T14:20:49.336Z,10.35
2018-05-18T14:25:51.787Z,9.70
2018-05-18T14:30:54.388Z,10.43
2018-05-18T14:35:57.348Z,10.30
2018-05-18T14:40:59.932Z,10.20
2018-05-18T14:46:03.604Z,9.77
2018-05-18T14:51:06.149Z,10.50
2018-05-18T14:56:08.640Z,9.85
2018-05-18T15:01:11.662Z,10.50
2018-05-18T15:06:14.158Z,10.00
2018-05-18T15:11:16.680Z,10.75
2018-05-18T15:16:19.289Z,10.73
2018-05-18T15:21:22.761Z,11.07
2018-05-18T15:26:25.297Z,9.93
2018-05-18T15:31:30.305Z,10.48
2018-05-18T15:36:33.648Z,10.00
2018-05-18T15:41:36.967Z,10.38
2018-05-18T15:46:40.702Z,10.20
2018-05-18T15:51:43.238Z,11.00
2018-05-18T15:56:45.824Z,10.68
2018-05-18T16:01:48.424Z,10.90
2018-05-18T16:06:50.941Z,10.48
2018-05-18T16:11:53.470Z,11.27
2018-05-18T16:16:55.979Z,11.20
2018-05-18T16:21:58.507Z,11.50
2018-05-18T16:27:01.256Z,11.50
2018-05-18T16:32:04.314Z,10.15
2018-05-18T16:37:07.807Z,10.85
2018-05-18T16:42:10.494Z,11.48
2018-05-18T16:47:17.044Z,10.90
2018-05-18T16:52:24.185Z,10.10
2018-05-18T16:57:27.537Z,10.80
2018-05-18T17:02:31.523Z,10.73
2018-05-18T17:07:34.048Z,9.63
2018-05-18T17:12:37.963Z,10.95
2018-05-18T17:17:43.158Z,9.70
2018-05-18T17:22:48.411Z,9.23
2018-05-18T17:27:51.620Z,9.15
2018-05-18T17:32:58.292Z,9.00
2018-05-18T17:38:04.739Z,9.70
2018-05-18T17:43:09.080Z,9.50
2018-05-18T17:48:12.495Z,8.80
2018-05-18T17:53:17.540Z,9.75
2018-05-18T17:58:21.201Z,9.98
2018-05-18T18:03:25.530Z,9.30
2018-05-18T18:08:29.518Z,10.15
2018-05-18T18:13:33.918Z,9.70
2018-05-18T18:18:36.463Z,8.85
2018-05-18T18:23:41.533Z,9.00
2018-05-18T18:28:44.975Z,8.70
2018-05-18T18:33:49.308Z,9.20
2018-05-18T18:38:51.867Z,9.60
2018-05-18T18:43:54.399Z,10.27
2018-05-18T18:48:56.924Z,9.15
2018-05-18T18:53:59.445Z,8.93
2018-05-18T18:59:01.949Z,8.70
2018-05-18T19:04:05.193Z,9.00
2018-05-18T19:09:09.836Z,9.40
2018-05-18T19:14:12.368Z,9.60
2018-05-18T19:19:15.188Z,9.60
2018-05-18T19:24:17.738Z,9.20
2018-05-18T19:29:20.297Z,10.43
2018-05-18T19:34:23.589Z,9.80
2018-05-18T19:39:26.092Z,9.88
2018-05-18T19:44:29.386Z,10.55
2018-05-18T19:49:31.921Z,10.53
2018-05-18T19:54:34.447Z,10.53
2018-05-18T19:59:36.991Z,9.80
2018-05-18T20:04:40.554Z,10.18
2018-05-18T20:09:43.065Z,11.07
2018-05-18T20:14:45.580Z,10.80
2018-05-18T20:19:48.877Z,10.80
2018-05-18T20:24:51.361Z,10.90
2018-05-18T20:29:53.861Z,10.75
2018-05-18T20:34:56.356Z,10.50
2018-05-18T20:39:59.674Z,10.33
2018-05-18T20:45:02.726Z,10.65
2018-05-18T20:50:05.166Z,10.90
2018-05-18T20:55:08.441Z,10.93
2018-05-18T21:00:10.936Z,12.10
2018-05-18T21:05:13.466Z,11.57
2018-05-18T21:10:15.987Z,12.13
2018-05-18T21:15:21.695Z,12.50
2018-05-18T21:20:24.395Z,12.50
2018-05-18T21:25:26.953Z,12.98
2018-05-18T21:30:29.556Z,11.57
2018-05-18T21:35:32.016Z,12.68
2018-05-18T21:40:35.276Z,12.07
2018-05-18T21:45:37.917Z,12.67
2018-05-18T21:50:40.456Z,12.70
2018-05-18T21:55:43.031Z,12.45
2018-05-18T22:00:45.552Z,13.57
2018-05-18T22:05:48.054Z,12.30
2018-05-18T22:10:50.612Z,13.60
2018-05-18T22:15:53.890Z,12.73
2018-05-18T22:20:57.166Z,12.00
2018-05-18T22:25:59.650Z,12.10
2018-05-18T22:31:02.173Z,12.53
2018-05-18T22:36:05.419Z,13.50
2018-05-18T22:41:07.957Z,12.70
2018-05-18T22:46:10.442Z,13.32
2018-05-18T22:51:12.988Z,13.60
2018-05-18T22:56:15.467Z,13.60
2018-05-18T23:01:18.730Z,12.43
2018-05-18T23:06:21.232Z,12.80
2018-05-18T23:11:23.719Z,14.32
2018-05-18T23:16:26.244Z,13.60
2018-05-18T23:21:29.530Z,14.52
2018-05-18T23:26:32.028Z,13.82
2018-05-18T23:31:34.566Z,15.63
2018-05-18T23:36:37.110Z,16.30
2018-05-18T23:41:39.627Z,15.52
2018-05-18T23:46:44.053Z,16.65
2018-05-18T23:51:46.620Z,14.60
2018-05-18T23:56:49.127Z,15.13
